| Date | Time | Temp. (oF) | Dew Point (oF) | Rel. Hum. (%) | Press. (in.) | Wind Dir. | Wind Speed (mph) | Hourly Rainfall (in.) |
|
|---|---|---|---|---|---|---|---|---|---|
| 1 | 04/14 | 00:00 | 38 | 29 | 70 | 30.23 | SW | 0 | 0.00 |
| 2 | 04/13 | 23:00 | 40 | 28 | 62 | 30.24 | SSW | 0 | 0.00 |
| 3 | 04/13 | 22:00 | 43 | 27 | 55 | 30.24 | S | 0 | 0.00 |
| 4 | 04/13 | 21:00 | 47 | 25 | 43 | 30.24 | SW | 0 | 0.00 |
| 5 | 04/13 | 20:00 | 48 | 22 | 37 | 30.21 | S | 0 | 0.00 |
| 6 | 04/13 | 19:00 | 52 | 23 | 33 | 30.21 | SE | 0 | 0.00 |
| 7 | 04/13 | 18:00 | 53 | 23 | 32 | 30.22 | ESE | 0 | 0.00 |
| 8 | 04/13 | 17:00 | 53 | 25 | 34 | 30.23 | ESE | 0 | 0.00 |
| 9 | 04/13 | 16:00 | 53 | 27 | 37 | 30.24 | SE | 0 | 0.00 |
| 10 | 04/13 | 15:00 | 53 | 26 | 36 | 30.25 | E | 0 | 0.00 |
| 11 | 04/13 | 14:00 | 52 | 30 | 43 | 30.27 | SE | 0 | 0.00 |
| 12 | 04/13 | 13:00 | 50 | 28 | 43 | 30.31 | S | 0 | 0.00 |
| 13 | 04/13 | 12:00 | 47 | 27 | 46 | 30.33 | E | 5 | 0.00 |
| 14 | 04/13 | 11:00 | 46 | 26 | 46 | 30.35 | ENE | 4 | 0.00 |
| 15 | 04/13 | 10:00 | 45 | 29 | 54 | 30.37 | ENE | 5 | 0.00 |
| 16 | 04/13 | 09:00 | 41 | 26 | 56 | 30.38 | NE | 7 | 0.00 |
| 17 | 04/13 | 08:00 | 35 | 27 | 74 | 30.37 | NE | 4 | 0.00 |
| 18 | 04/13 | 07:00 | 31 | 24 | 76 | 30.37 | NNE | 0 | 0.00 |
| 19 | 04/13 | 06:00 | 30 | 22 | 74 | 30.34 | SSW | 0 | 0.00 |
| 20 | 04/13 | 05:00 | 33 | 22 | 65 | 30.32 | SSW | 0 | 0.00 |
| 21 | 04/13 | 04:00 | 35 | 22 | 61 | 30.30 | W | 0 | 0.00 |
| 22 | 04/13 | 03:00 | 38 | 21 | 51 | 30.27 | SSE | 0 | 0.00 |
| 23 | 04/13 | 02:00 | 40 | 22 | 49 | 30.27 | NNE | 3 | 0.00 |
| 24 | 04/13 | 01:00 | 41 | 21 | 46 | 30.26 | NNE | 0 | 0.00 |